Ridgway, IL (62979)

8:43 AM CDT on May 25, 2015 (GMT -0500)
1 BLOCK N.OF MAIN ST.RIDGWAY,IL. | | Change Station
CLOSE
Current Station
Personal Weather Station
Location: Ridgway, IL
Elevation: 377 ft
Nearby Weather Stations

Elev 377 ft 37.80 °N, 88.26 °W | Updated 9 minutes ago

Overcast
Overcast
69.4 °F
Feels Like 69.4 °F
N
5.8
Wind Variable Wind from SW
Gusts 5.8 mph

Today
High -- | Low -- °F
--% Chance of Precip.
Yesterday
High -- | Low -- °F
Precip. -- in
5:36 AM 8:04 PM
Waxing Crescent, 48% visible
Pressure 30.07 in
Visibility 10.0 miles
Clouds Mostly Cloudy 1900 ft
Mostly Cloudy 3000 ft
Dew Point 66 °F
Humidity 88%
Rainfall 5.36 in
Snow Depth Not available.
UV 2 out of 12
Pollen 4.90 out of 12
Air Quality Not available.
Flu Activity Sporadic
METAR KHSB 251335Z AUTO 20009KT 10SM BKN019 BKN030 21/20 A3007 RMK AO2 T02100200

More Conditions Fewer Conditions

Pressure 30.07 in
Visibility 10.0 miles
Clouds Mostly Cloudy 1900 ft
Mostly Cloudy 3000 ft
Dew Point 66 °F
Humidity 88%
Rainfall 5.36 in
Snow Depth Not available.
UV 2 out of 12
Pollen 4.90 out of 12
Air Quality Not available.
Flu Activity Sporadic
METAR KHSB 251335Z AUTO 20009KT 10SM BKN019 BKN030 21/20 A3007 RMK AO2 T02100200

More Conditions Fewer Conditions

10-Day Weather Forecast

Almanac

Astronomy

May. 25, 2015 Rise Set
Actual Time
Civil Twilight
Nautical Twilight
Astronomical Twilight
Moon
Length of Visible Light
Length of Day
Tomorrow will be .
, % of the Moon is Illuminated

Today's Extremes

State Highs State Lows

Community

WunderPhotos

Upload Photos

1,824,009 photos uploaded!

WunderBlogs® & News

Nearby

Air Quality

  Air Quality AQ Index Pollutant
Not available.

Snow Depth

Station Depth Elevation

Earthquake Activity

City Distance Mag. Time & Date
Minimum magnitude displayed is 2.5.

Coastal Water Temperatures

Place Temperature

Stations

Nearby Weather Stations

Station Location Temp. Windchill Dew Point Humidity Wind Precip. Elev Updated Type